Washburn, IA (50706)

6:58 AM CDT on July 23, 2016 (GMT -0500)
Washburn | | Change Station

Elev 843 ft 42.41 °N, 92.27 °W | Updated 55 seconds ago

Mostly Cloudy
Mostly Cloudy
76.8 °F
Feels Like 77 °F
N
0.0
Wind Variable Wind from West

Today
High -- | Low -- °F
--% Chance of Precip.
Yesterday
High -- | Low -- °F
Precip. -- in
Pressure 29.91 in
Visibility 8.0 miles
Clouds Few 500 ft
Scattered Clouds 5000 ft
Mostly Cloudy 7000 ft
Heat Index 77 °F
Dew Point 76 °F
Humidity 96%
Rainfall 0.07 in
Snow Depth Not available.
5:53 AM 8:37 PM
Waning Gibbous, 86% visible
METAR KALO 231154Z AUTO 13007KT 8SM VCTS FEW005 SCT050 BKN070 25/24 A2993 RMK AO2 LTG DSNT NW-E RAB1056E31 TSE48 SLP128 P0012 60012 70012 T02500239 10267 20250 58002
Pressure 29.91 in
Visibility 8.0 miles
Clouds Few 500 ft
Scattered Clouds 5000 ft
Mostly Cloudy 7000 ft
Heat Index 77 °F
Dew Point 76 °F
Humidity 96%
Rainfall 0.07 in
Snow Depth Not available.
5:53 AM 8:37 PM
Waning Gibbous, 86% visible
METAR KALO 231154Z AUTO 13007KT 8SM VCTS FEW005 SCT050 BKN070 25/24 A2993 RMK AO2 LTG DSNT NW-E RAB1056E31 TSE48 SLP128 P0012 60012 70012 T02500239 10267 20250 58002

10-Day Weather Forecast

Almanac

Astronomy

Jul. 23, 2016 Rise Set
Actual Time
Civil Twilight
Nautical Twilight
Astronomical Twilight
Moon
Length of Visible Light
Length of Day
Tomorrow will be .
, % of the Moon is Illuminated

Today's Extremes

State Highs State Lows

Community

WunderPhotos

Upload Photos

1,926,810 photos uploaded!

WunderBlog® & News

Nearby

Air Quality

  Air Quality AQ Index Pollutant
Not available.

Snow Depth

Station Depth Elevation

Earthquake Activity

City Distance Mag. Time & Date
Minimum magnitude displayed is 2.5.

Coastal Water Temperatures

Place Temperature

Stations

Nearby Weather Stations

Station Location Temp. Windchill Dew Point Humidity Wind Precip. Elev Updated Type
                   

Watches & Warnings

There are currently no watches in effect.